Aérodrome :
LOGIN :

S'inscrire | Disclaimer

   EN    FR    IT 

 










Légende :    VFR   VFR Marginal   IFR   IFR Intensif   IFR Très Intensif
Visi : 
Plafond : 
>= 8 km
>= 3000ft
5 à 8 km
1000 à 3000 ft
1500m à 5 km
500 à 1000 ft
800 à 1500m
200 à 500 ft
< 800m
< 200 ft
Symboles :   Orages  Brouillard  Fortes neiges  Fortes précipitations  Vent > 20 kt
SIGMETs :   Divers  Orages  Givrage  Turbulence  Onde Orograph.  Cendres Volcan.







- Altitude de l'aérodrome : 24 ft
- Code IATA : FAO


LPFR - Faro

DERNIER METAR :
  • 151730Z 31012KT 9999 FEW020 BKN030 20/15 Q1010

METARs EXPIRÉS :
  • 151700Z 28017KT 9999 SCT020 21/16 Q1009
  • 151630Z 28015KT 9999 SCT018 21/17 Q1009
  • 151600Z 28014KT 9999 FEW015 BKN045 21/17 Q1009
  • 151530Z 29012KT 9999 FEW010 SCT015 BKN040 20/18 Q1009
  • 151500Z 27019KT 9999 FEW010 SCT015 BKN040 20/17 Q1009

TAF TAF LPFR
Valide du 15 à 18h jusqu'au 16 à 18h UTC


151700Z 1518/1618 30015KT 9999 SCT018 SCT035
BECMG 1522/1524 33005KT
BECMG 1603/1605 02005KT
BECMG 1610/1612 VRB03KT BKN040
BECMG 1612/1614 20008KT
BECMG 1616/1618 FEW040
Pas de NOTAMs connus pour ce terrain.



MET'MAP, la Météo Aéronautique d'un coup d'oeil ! - Copyright ORBIFLY Décembre 2007 - Disclaimer

ORBIFLY MET'MAP TEAM :

Programmation & Développement : Alexandra Zaïnal
Conception & Développement : Baudouin d'Aumeries
Co-Programmation & Développement : Marc-Olivier Méhu
Soutien technique & logistique : Manuel Goepfert

Contact : metmap@orbifly.com




SOURCES & CREDITS :

   NOAA